sensor_id;sensor_type;location;lat;lon;timestamp;P1;durP1;ratioP1;P2;durP2;ratioP2
75737;SDS011;64356;45.638;13.764;2024-01-07T00:01:02;1.25;;;0.90;;
75737;SDS011;64356;45.638;13.764;2024-01-07T00:03:28;0.80;;;0.80;;
75737;SDS011;64356;45.638;13.764;2024-01-07T00:05:54;1.17;;;0.88;;
75737;SDS011;64356;45.638;13.764;2024-01-07T00:08:19;1.35;;;0.98;;
75737;SDS011;64356;45.638;13.764;2024-01-07T00:10:46;1.10;;;1.00;;
75737;SDS011;64356;45.638;13.764;2024-01-07T00:13:11;0.70;;;0.70;;
75737;SDS011;64356;45.638;13.764;2024-01-07T00:15:37;0.82;;;0.80;;
75737;SDS011;64356;45.638;13.764;2024-01-07T00:18:03;1.02;;;0.90;;
75737;SDS011;64356;45.638;13.764;2024-01-07T00:20:29;1.25;;;0.90;;
75737;SDS011;64356;45.638;13.764;2024-01-07T00:22:54;0.60;;;0.60;;
75737;SDS011;64356;45.638;13.764;2024-01-07T00:25:21;0.90;;;0.90;;
75737;SDS011;64356;45.638;13.764;2024-01-07T00:27:47;0.80;;;0.70;;
75737;SDS011;64356;45.638;13.764;2024-01-07T00:30:12;0.75;;;0.75;;
75737;SDS011;64356;45.638;13.764;2024-01-07T00:32:38;1.17;;;0.80;;
75737;SDS011;64356;45.638;13.764;2024-01-07T00:35:04;0.68;;;0.68;;
75737;SDS011;64356;45.638;13.764;2024-01-07T00:37:30;0.82;;;0.82;;
75737;SDS011;64356;45.638;13.764;2024-01-07T00:39:56;1.05;;;0.90;;
75737;SDS011;64356;45.638;13.764;2024-01-07T00:42:22;0.70;;;0.70;;
75737;SDS011;64356;45.638;13.764;2024-01-07T00:44:47;3.78;;;0.90;;
75737;SDS011;64356;45.638;13.764;2024-01-07T00:47:13;1.42;;;0.90;;
75737;SDS011;64356;45.638;13.764;2024-01-07T00:49:39;0.73;;;0.73;;
75737;SDS011;64356;45.638;13.764;2024-01-07T00:52:05;0.70;;;0.70;;
75737;SDS011;64356;45.638;13.764;2024-01-07T00:54:31;0.88;;;0.88;;
75737;SDS011;64356;45.638;13.764;2024-01-07T00:56:56;0.70;;;0.70;;
75737;SDS011;64356;45.638;13.764;2024-01-07T00:59:22;1.17;;;1.00;;
75737;SDS011;64356;45.638;13.764;2024-01-07T01:01:48;0.70;;;0.70;;
75737;SDS011;64356;45.638;13.764;2024-01-07T01:04:13;0.77;;;0.77;;
75737;SDS011;64356;45.638;13.764;2024-01-07T01:06:39;0.65;;;0.65;;
75737;SDS011;64356;45.638;13.764;2024-01-07T01:09:05;0.98;;;0.90;;
75737;SDS011;64356;45.638;13.764;2024-01-07T01:11:30;0.90;;;0.90;;
75737;SDS011;64356;45.638;13.764;2024-01-07T01:13:56;0.75;;;0.75;;
75737;SDS011;64356;45.638;13.764;2024-01-07T01:16:22;0.80;;;0.80;;
75737;SDS011;64356;45.638;13.764;2024-01-07T01:18:49;1.13;;;1.02;;
75737;SDS011;64356;45.638;13.764;2024-01-07T01:21:15;0.82;;;0.70;;
75737;SDS011;64356;45.638;13.764;2024-01-07T01:23:40;0.75;;;0.75;;
75737;SDS011;64356;45.638;13.764;2024-01-07T01:26:06;0.95;;;0.70;;
75737;SDS011;64356;45.638;13.764;2024-01-07T01:28:32;1.63;;;1.27;;
75737;SDS011;64356;45.638;13.764;2024-01-07T01:30:58;0.95;;;0.88;;
75737;SDS011;64356;45.638;13.764;2024-01-07T01:33:23;0.70;;;0.70;;
75737;SDS011;64356;45.638;13.764;2024-01-07T01:35:49;0.80;;;0.80;;
75737;SDS011;64356;45.638;13.764;2024-01-07T01:38:15;0.98;;;0.88;;
75737;SDS011;64356;45.638;13.764;2024-01-07T01:40:40;0.80;;;0.80;;
75737;SDS011;64356;45.638;13.764;2024-01-07T01:43:06;0.90;;;0.90;;
75737;SDS011;64356;45.638;13.764;2024-01-07T01:45:32;0.80;;;0.80;;
75737;SDS011;64356;45.638;13.764;2024-01-07T01:47:58;0.98;;;0.70;;
75737;SDS011;64356;45.638;13.764;2024-01-07T01:50:24;0.70;;;0.70;;
75737;SDS011;64356;45.638;13.764;2024-01-07T01:52:50;0.70;;;0.70;;
75737;SDS011;64356;45.638;13.764;2024-01-07T01:55:17;0.70;;;0.70;;
75737;SDS011;64356;45.638;13.764;2024-01-07T01:57:43;1.17;;;1.08;;
75737;SDS011;64356;45.638;13.764;2024-01-07T02:00:12;0.70;;;0.70;;
75737;SDS011;64356;45.638;13.764;2024-01-07T02:02:38;0.82;;;0.80;;
75737;SDS011;64356;45.638;13.764;2024-01-07T02:05:04;0.73;;;0.73;;
75737;SDS011;64356;45.638;13.764;2024-01-07T02:07:30;0.80;;;0.80;;
75737;SDS011;64356;45.638;13.764;2024-01-07T02:09:56;0.70;;;0.70;;
75737;SDS011;64356;45.638;13.764;2024-01-07T02:12:22;0.60;;;0.60;;
75737;SDS011;64356;45.638;13.764;2024-01-07T02:14:48;1.73;;;0.80;;
75737;SDS011;64356;45.638;13.764;2024-01-07T02:17:14;0.65;;;0.60;;
75737;SDS011;64356;45.638;13.764;2024-01-07T02:19:40;0.63;;;0.63;;
75737;SDS011;64356;45.638;13.764;2024-01-07T02:22:06;0.60;;;0.60;;
75737;SDS011;64356;45.638;13.764;2024-01-07T02:24:32;0.93;;;0.70;;
75737;SDS011;64356;45.638;13.764;2024-01-07T02:26:57;0.77;;;0.73;;
75737;SDS011;64356;45.638;13.764;2024-01-07T02:29:27;0.82;;;0.82;;
75737;SDS011;64356;45.638;13.764;2024-01-07T02:31:53;0.70;;;0.70;;
75737;SDS011;64356;45.638;13.764;2024-01-07T02:34:19;0.70;;;0.70;;
75737;SDS011;64356;45.638;13.764;2024-01-07T02:36:44;1.20;;;0.73;;
75737;SDS011;64356;45.638;13.764;2024-01-07T02:39:10;0.60;;;0.60;;
75737;SDS011;64356;45.638;13.764;2024-01-07T02:41:36;0.80;;;0.68;;
75737;SDS011;64356;45.638;13.764;2024-01-07T02:44:02;0.70;;;0.70;;
75737;SDS011;64356;45.638;13.764;2024-01-07T02:46:27;1.48;;;0.80;;
75737;SDS011;64356;45.638;13.764;2024-01-07T02:48:53;0.80;;;0.80;;
75737;SDS011;64356;45.638;13.764;2024-01-07T02:51:19;1.35;;;0.77;;
75737;SDS011;64356;45.638;13.764;2024-01-07T02:53:44;0.77;;;0.70;;
75737;SDS011;64356;45.638;13.764;2024-01-07T02:56:10;1.33;;;0.80;;
75737;SDS011;64356;45.638;13.764;2024-01-07T02:58:35;1.00;;;0.90;;
75737;SDS011;64356;45.638;13.764;2024-01-07T03:01:01;0.80;;;0.80;;
75737;SDS011;64356;45.638;13.764;2024-01-07T03:03:27;1.20;;;0.88;;
75737;SDS011;64356;45.638;13.764;2024-01-07T03:05:53;0.70;;;0.70;;
75737;SDS011;64356;45.638;13.764;2024-01-07T03:08:18;0.40;;;0.40;;
75737;SDS011;64356;45.638;13.764;2024-01-07T03:10:44;0.43;;;0.43;;
75737;SDS011;64356;45.638;13.764;2024-01-07T03:13:10;0.77;;;0.70;;
75737;SDS011;64356;45.638;13.764;2024-01-07T03:15:36;0.60;;;0.60;;
75737;SDS011;64356;45.638;13.764;2024-01-07T03:18:03;0.70;;;0.65;;
75737;SDS011;64356;45.638;13.764;2024-01-07T03:20:29;0.90;;;0.60;;
75737;SDS011;64356;45.638;13.764;2024-01-07T03:22:54;0.50;;;0.50;;
75737;SDS011;64356;45.638;13.764;2024-01-07T03:25:20;0.50;;;0.50;;
75737;SDS011;64356;45.638;13.764;2024-01-07T03:27:46;0.63;;;0.63;;
75737;SDS011;64356;45.638;13.764;2024-01-07T03:30:11;0.70;;;0.60;;
75737;SDS011;64356;45.638;13.764;2024-01-07T03:32:37;1.13;;;0.85;;
75737;SDS011;64356;45.638;13.764;2024-01-07T03:35:03;0.90;;;0.60;;
75737;SDS011;64356;45.638;13.764;2024-01-07T03:37:29;0.40;;;0.40;;
75737;SDS011;64356;45.638;13.764;2024-01-07T03:39:55;0.70;;;0.70;;
75737;SDS011;64356;45.638;13.764;2024-01-07T03:42:20;0.73;;;0.50;;
75737;SDS011;64356;45.638;13.764;2024-01-07T03:44:46;0.50;;;0.50;;
75737;SDS011;64356;45.638;13.764;2024-01-07T03:47:12;0.70;;;0.70;;
75737;SDS011;64356;45.638;13.764;2024-01-07T03:49:37;0.50;;;0.50;;
75737;SDS011;64356;45.638;13.764;2024-01-07T03:52:04;0.55;;;0.55;;
75737;SDS011;64356;45.638;13.764;2024-01-07T03:54:31;1.10;;;0.80;;
75737;SDS011;64356;45.638;13.764;2024-01-07T03:56:56;0.60;;;0.60;;
75737;SDS011;64356;45.638;13.764;2024-01-07T03:59:22;0.60;;;0.60;;
75737;SDS011;64356;45.638;13.764;2024-01-07T04:01:50;0.50;;;0.50;;
75737;SDS011;64356;45.638;13.764;2024-01-07T04:04:19;0.75;;;0.63;;
75737;SDS011;64356;45.638;13.764;2024-01-07T04:06:45;0.60;;;0.60;;
75737;SDS011;64356;45.638;13.764;2024-01-07T04:09:10;0.77;;;0.70;;
75737;SDS011;64356;45.638;13.764;2024-01-07T04:11:39;0.60;;;0.60;;
75737;SDS011;64356;45.638;13.764;2024-01-07T04:14:06;0.45;;;0.45;;
75737;SDS011;64356;45.638;13.764;2024-01-07T04:16:31;0.70;;;0.70;;
75737;SDS011;64356;45.638;13.764;2024-01-07T04:18:57;0.50;;;0.47;;
75737;SDS011;64356;45.638;13.764;2024-01-07T04:21:23;0.55;;;0.55;;
75737;SDS011;64356;45.638;13.764;2024-01-07T04:23:48;0.40;;;0.40;;
75737;SDS011;64356;45.638;13.764;2024-01-07T04:26:14;0.70;;;0.70;;
75737;SDS011;64356;45.638;13.764;2024-01-07T04:28:43;0.50;;;0.50;;
75737;SDS011;64356;45.638;13.764;2024-01-07T04:31:09;0.47;;;0.47;;
75737;SDS011;64356;45.638;13.764;2024-01-07T04:33:35;0.50;;;0.50;;
75737;SDS011;64356;45.638;13.764;2024-01-07T04:36:00;0.45;;;0.45;;
75737;SDS011;64356;45.638;13.764;2024-01-07T04:38:26;0.50;;;0.50;;
75737;SDS011;64356;45.638;13.764;2024-01-07T04:40:52;0.52;;;0.50;;
75737;SDS011;64356;45.638;13.764;2024-01-07T04:43:18;0.60;;;0.60;;
75737;SDS011;64356;45.638;13.764;2024-01-07T04:45:44;0.70;;;0.70;;
75737;SDS011;64356;45.638;13.764;2024-01-07T04:48:10;0.52;;;0.52;;
75737;SDS011;64356;45.638;13.764;2024-01-07T04:50:36;0.40;;;0.40;;
75737;SDS011;64356;45.638;13.764;2024-01-07T04:53:02;0.52;;;0.52;;
75737;SDS011;64356;45.638;13.764;2024-01-07T04:55:28;0.50;;;0.50;;
75737;SDS011;64356;45.638;13.764;2024-01-07T04:57:55;0.60;;;0.60;;
75737;SDS011;64356;45.638;13.764;2024-01-07T05:00:20;0.50;;;0.50;;
75737;SDS011;64356;45.638;13.764;2024-01-07T05:02:46;0.70;;;0.70;;
75737;SDS011;64356;45.638;13.764;2024-01-07T05:05:12;0.95;;;0.60;;
75737;SDS011;64356;45.638;13.764;2024-01-07T05:07:38;0.65;;;0.65;;
75737;SDS011;64356;45.638;13.764;2024-01-07T05:10:04;0.60;;;0.60;;
75737;SDS011;64356;45.638;13.764;2024-01-07T05:12:30;0.38;;;0.38;;
75737;SDS011;64356;45.638;13.764;2024-01-07T05:14:56;0.50;;;0.50;;
75737;SDS011;64356;45.638;13.764;2024-01-07T05:17:21;0.70;;;0.70;;
75737;SDS011;64356;45.638;13.764;2024-01-07T05:19:47;0.60;;;0.60;;
75737;SDS011;64356;45.638;13.764;2024-01-07T05:22:13;0.60;;;0.60;;
75737;SDS011;64356;45.638;13.764;2024-01-07T05:24:38;3.15;;;0.70;;
75737;SDS011;64356;45.638;13.764;2024-01-07T05:27:04;0.90;;;0.77;;
75737;SDS011;64356;45.638;13.764;2024-01-07T05:29:31;0.90;;;0.90;;
75737;SDS011;64356;45.638;13.764;2024-01-07T05:32:00;0.40;;;0.40;;
75737;SDS011;64356;45.638;13.764;2024-01-07T05:34:27;0.40;;;0.40;;
75737;SDS011;64356;45.638;13.764;2024-01-07T05:36:53;0.35;;;0.35;;
75737;SDS011;64356;45.638;13.764;2024-01-07T05:39:19;0.50;;;0.50;;
75737;SDS011;64356;45.638;13.764;2024-01-07T05:41:45;0.45;;;0.45;;
75737;SDS011;64356;45.638;13.764;2024-01-07T05:44:11;0.50;;;0.50;;
75737;SDS011;64356;45.638;13.764;2024-01-07T05:46:40;0.45;;;0.45;;
75737;SDS011;64356;45.638;13.764;2024-01-07T05:49:06;0.50;;;0.50;;
75737;SDS011;64356;45.638;13.764;2024-01-07T05:51:32;0.40;;;0.40;;
75737;SDS011;64356;45.638;13.764;2024-01-07T05:53:58;0.50;;;0.50;;
75737;SDS011;64356;45.638;13.764;2024-01-07T05:56:24;1.05;;;0.47;;
75737;SDS011;64356;45.638;13.764;2024-01-07T05:58:49;0.80;;;0.80;;
75737;SDS011;64356;45.638;13.764;2024-01-07T06:01:21;0.70;;;0.70;;
75737;SDS011;64356;45.638;13.764;2024-01-07T06:03:47;0.40;;;0.40;;
75737;SDS011;64356;45.638;13.764;2024-01-07T06:06:13;0.50;;;0.50;;
75737;SDS011;64356;45.638;13.764;2024-01-07T06:08:43;0.50;;;0.50;;
75737;SDS011;64356;45.638;13.764;2024-01-07T06:11:09;0.43;;;0.43;;
75737;SDS011;64356;45.638;13.764;2024-01-07T06:13:37;0.57;;;0.57;;
75737;SDS011;64356;45.638;13.764;2024-01-07T06:16:02;0.52;;;0.52;;
75737;SDS011;64356;45.638;13.764;2024-01-07T06:18:28;0.40;;;0.40;;
75737;SDS011;64356;45.638;13.764;2024-01-07T06:20:54;0.50;;;0.50;;
75737;SDS011;64356;45.638;13.764;2024-01-07T06:23:20;0.38;;;0.38;;
75737;SDS011;64356;45.638;13.764;2024-01-07T06:25:45;0.30;;;0.30;;
75737;SDS011;64356;45.638;13.764;2024-01-07T06:28:11;0.55;;;0.55;;
75737;SDS011;64356;45.638;13.764;2024-01-07T06:30:37;0.50;;;0.50;;
75737;SDS011;64356;45.638;13.764;2024-01-07T06:33:03;3.42;;;0.60;;
75737;SDS011;64356;45.638;13.764;2024-01-07T06:35:30;0.85;;;0.60;;
75737;SDS011;64356;45.638;13.764;2024-01-07T06:37:55;0.50;;;0.45;;
75737;SDS011;64356;45.638;13.764;2024-01-07T06:40:21;0.50;;;0.50;;
75737;SDS011;64356;45.638;13.764;2024-01-07T06:42:47;0.40;;;0.40;;
75737;SDS011;64356;45.638;13.764;2024-01-07T06:45:13;0.45;;;0.45;;
75737;SDS011;64356;45.638;13.764;2024-01-07T06:47:40;0.50;;;0.50;;
75737;SDS011;64356;45.638;13.764;2024-01-07T06:50:06;0.40;;;0.40;;
75737;SDS011;64356;45.638;13.764;2024-01-07T06:52:32;0.60;;;0.60;;
75737;SDS011;64356;45.638;13.764;2024-01-07T06:54:58;0.50;;;0.50;;
75737;SDS011;64356;45.638;13.764;2024-01-07T06:57:24;0.70;;;0.50;;
75737;SDS011;64356;45.638;13.764;2024-01-07T06:59:49;0.40;;;0.40;;
75737;SDS011;64356;45.638;13.764;2024-01-07T07:02:15;0.55;;;0.55;;
75737;SDS011;64356;45.638;13.764;2024-01-07T07:04:41;0.50;;;0.50;;
75737;SDS011;64356;45.638;13.764;2024-01-07T07:07:06;0.50;;;0.50;;
75737;SDS011;64356;45.638;13.764;2024-01-07T07:09:32;0.82;;;0.50;;
75737;SDS011;64356;45.638;13.764;2024-01-07T07:11:59;0.40;;;0.40;;
75737;SDS011;64356;45.638;13.764;2024-01-07T07:14:25;0.85;;;0.40;;
75737;SDS011;64356;45.638;13.764;2024-01-07T07:16:51;0.40;;;0.40;;
75737;SDS011;64356;45.638;13.764;2024-01-07T07:19:16;0.98;;;0.40;;
75737;SDS011;64356;45.638;13.764;2024-01-07T07:21:43;0.30;;;0.30;;
75737;SDS011;64356;45.638;13.764;2024-01-07T07:24:09;0.40;;;0.40;;
75737;SDS011;64356;45.638;13.764;2024-01-07T07:26:35;0.47;;;0.47;;
75737;SDS011;64356;45.638;13.764;2024-01-07T07:29:05;0.63;;;0.63;;
75737;SDS011;64356;45.638;13.764;2024-01-07T07:31:32;0.60;;;0.60;;
75737;SDS011;64356;45.638;13.764;2024-01-07T07:33:58;0.50;;;0.50;;
75737;SDS011;64356;45.638;13.764;2024-01-07T07:36:24;0.40;;;0.40;;
75737;SDS011;64356;45.638;13.764;2024-01-07T07:38:50;0.50;;;0.50;;
75737;SDS011;64356;45.638;13.764;2024-01-07T07:41:15;0.50;;;0.50;;
75737;SDS011;64356;45.638;13.764;2024-01-07T07:43:41;0.50;;;0.50;;
75737;SDS011;64356;45.638;13.764;2024-01-07T07:46:07;0.30;;;0.30;;
75737;SDS011;64356;45.638;13.764;2024-01-07T07:48:32;0.50;;;0.50;;
75737;SDS011;64356;45.638;13.764;2024-01-07T07:50:58;0.43;;;0.43;;
75737;SDS011;64356;45.638;13.764;2024-01-07T07:53:24;0.50;;;0.50;;
75737;SDS011;64356;45.638;13.764;2024-01-07T07:55:49;0.30;;;0.30;;
75737;SDS011;64356;45.638;13.764;2024-01-07T07:58:15;0.40;;;0.40;;
75737;SDS011;64356;45.638;13.764;2024-01-07T08:00:41;0.50;;;0.40;;
75737;SDS011;64356;45.638;13.764;2024-01-07T08:03:07;0.93;;;0.63;;
75737;SDS011;64356;45.638;13.764;2024-01-07T08:05:32;0.50;;;0.50;;
75737;SDS011;64356;45.638;13.764;2024-01-07T08:07:58;0.40;;;0.40;;
75737;SDS011;64356;45.638;13.764;2024-01-07T08:10:24;0.32;;;0.32;;
75737;SDS011;64356;45.638;13.764;2024-01-07T08:12:49;0.50;;;0.40;;
75737;SDS011;64356;45.638;13.764;2024-01-07T08:15:15;2.47;;;0.40;;
75737;SDS011;64356;45.638;13.764;2024-01-07T08:17:41;0.50;;;0.50;;
75737;SDS011;64356;45.638;13.764;2024-01-07T08:20:07;0.50;;;0.50;;
75737;SDS011;64356;45.638;13.764;2024-01-07T08:22:34;0.40;;;0.40;;
75737;SDS011;64356;45.638;13.764;2024-01-07T08:24:59;0.30;;;0.30;;
75737;SDS011;64356;45.638;13.764;2024-01-07T08:27:25;0.50;;;0.50;;
75737;SDS011;64356;45.638;13.764;2024-01-07T08:29:51;0.85;;;0.57;;
75737;SDS011;64356;45.638;13.764;2024-01-07T08:32:17;0.50;;;0.50;;
75737;SDS011;64356;45.638;13.764;2024-01-07T08:34:44;0.75;;;0.60;;
75737;SDS011;64356;45.638;13.764;2024-01-07T08:37:10;0.40;;;0.40;;
75737;SDS011;64356;45.638;13.764;2024-01-07T08:39:36;0.40;;;0.40;;
75737;SDS011;64356;45.638;13.764;2024-01-07T08:42:01;0.60;;;0.55;;
75737;SDS011;64356;45.638;13.764;2024-01-07T08:44:29;1.17;;;0.40;;
75737;SDS011;64356;45.638;13.764;2024-01-07T08:46:55;0.47;;;0.47;;
75737;SDS011;64356;45.638;13.764;2024-01-07T08:49:20;0.43;;;0.43;;
75737;SDS011;64356;45.638;13.764;2024-01-07T08:51:46;0.40;;;0.40;;
75737;SDS011;64356;45.638;13.764;2024-01-07T08:54:12;0.40;;;0.40;;
75737;SDS011;64356;45.638;13.764;2024-01-07T08:56:37;0.57;;;0.57;;
75737;SDS011;64356;45.638;13.764;2024-01-07T08:59:04;0.40;;;0.40;;
75737;SDS011;64356;45.638;13.764;2024-01-07T09:01:30;0.40;;;0.40;;
75737;SDS011;64356;45.638;13.764;2024-01-07T09:03:56;0.40;;;0.40;;
75737;SDS011;64356;45.638;13.764;2024-01-07T09:06:21;0.38;;;0.30;;
75737;SDS011;64356;45.638;13.764;2024-01-07T09:08:47;0.55;;;0.55;;
75737;SDS011;64356;45.638;13.764;2024-01-07T09:11:13;0.40;;;0.40;;
75737;SDS011;64356;45.638;13.764;2024-01-07T09:13:39;0.60;;;0.60;;
75737;SDS011;64356;45.638;13.764;2024-01-07T09:16:04;0.40;;;0.40;;
75737;SDS011;64356;45.638;13.764;2024-01-07T09:18:30;0.52;;;0.40;;
75737;SDS011;64356;45.638;13.764;2024-01-07T09:20:56;0.32;;;0.32;;
75737;SDS011;64356;45.638;13.764;2024-01-07T09:23:22;0.40;;;0.40;;
75737;SDS011;64356;45.638;13.764;2024-01-07T09:25:48;0.50;;;0.50;;
75737;SDS011;64356;45.638;13.764;2024-01-07T09:28:14;0.98;;;0.57;;
75737;SDS011;64356;45.638;13.764;2024-01-07T09:30:40;0.43;;;0.43;;
75737;SDS011;64356;45.638;13.764;2024-01-07T09:33:05;0.50;;;0.50;;
75737;SDS011;64356;45.638;13.764;2024-01-07T09:35:32;0.30;;;0.30;;
75737;SDS011;64356;45.638;13.764;2024-01-07T09:37:57;0.40;;;0.40;;
75737;SDS011;64356;45.638;13.764;2024-01-07T09:40:23;0.40;;;0.40;;
75737;SDS011;64356;45.638;13.764;2024-01-07T09:42:49;0.40;;;0.40;;
75737;SDS011;64356;45.638;13.764;2024-01-07T09:45:15;0.40;;;0.40;;
75737;SDS011;64356;45.638;13.764;2024-01-07T09:47:44;0.52;;;0.45;;
75737;SDS011;64356;45.638;13.764;2024-01-07T09:50:11;0.35;;;0.35;;
75737;SDS011;64356;45.638;13.764;2024-01-07T09:52:38;0.50;;;0.50;;
75737;SDS011;64356;45.638;13.764;2024-01-07T09:55:07;0.50;;;0.50;;
75737;SDS011;64356;45.638;13.764;2024-01-07T09:57:38;0.52;;;0.50;;
75737;SDS011;64356;45.638;13.764;2024-01-07T10:00:07;0.47;;;0.47;;
75737;SDS011;64356;45.638;13.764;2024-01-07T10:02:33;0.40;;;0.40;;
75737;SDS011;64356;45.638;13.764;2024-01-07T10:05:00;0.50;;;0.50;;
75737;SDS011;64356;45.638;13.764;2024-01-07T10:07:26;0.40;;;0.40;;
75737;SDS011;64356;45.638;13.764;2024-01-07T10:09:51;0.45;;;0.40;;
75737;SDS011;64356;45.638;13.764;2024-01-07T10:12:22;0.40;;;0.40;;
75737;SDS011;64356;45.638;13.764;2024-01-07T10:14:48;0.57;;;0.40;;
75737;SDS011;64356;45.638;13.764;2024-01-07T10:17:14;0.50;;;0.50;;
75737;SDS011;64356;45.638;13.764;2024-01-07T10:19:43;0.98;;;0.60;;
75737;SDS011;64356;45.638;13.764;2024-01-07T10:22:11;0.50;;;0.50;;
75737;SDS011;64356;45.638;13.764;2024-01-07T10:24:41;0.40;;;0.40;;
75737;SDS011;64356;45.638;13.764;2024-01-07T10:27:08;0.50;;;0.47;;
75737;SDS011;64356;45.638;13.764;2024-01-07T10:29:35;0.50;;;0.50;;
75737;SDS011;64356;45.638;13.764;2024-01-07T10:32:01;0.50;;;0.50;;
75737;SDS011;64356;45.638;13.764;2024-01-07T10:34:31;0.60;;;0.60;;
75737;SDS011;64356;45.638;13.764;2024-01-07T10:37:02;0.65;;;0.65;;
75737;SDS011;64356;45.638;13.764;2024-01-07T10:39:33;3.03;;;0.50;;
75737;SDS011;64356;45.638;13.764;2024-01-07T10:41:59;0.38;;;0.38;;
75737;SDS011;64356;45.638;13.764;2024-01-07T10:44:31;0.40;;;0.40;;
75737;SDS011;64356;45.638;13.764;2024-01-07T10:46:58;0.57;;;0.57;;
75737;SDS011;64356;45.638;13.764;2024-01-07T10:49:25;2.42;;;0.55;;
75737;SDS011;64356;45.638;13.764;2024-01-07T10:54:30;0.50;;;0.50;;
75737;SDS011;64356;45.638;13.764;2024-01-07T10:57:09;0.47;;;0.47;;
75737;SDS011;64356;45.638;13.764;2024-01-07T10:59:42;0.50;;;0.50;;
75737;SDS011;64356;45.638;13.764;2024-01-07T11:02:10;0.40;;;0.40;;
75737;SDS011;64356;45.638;13.764;2024-01-07T11:04:57;0.30;;;0.30;;
75737;SDS011;64356;45.638;13.764;2024-01-07T11:07:35;0.47;;;0.47;;
75737;SDS011;64356;45.638;13.764;2024-01-07T11:10:10;0.40;;;0.40;;
75737;SDS011;64356;45.638;13.764;2024-01-07T11:12:40;0.40;;;0.40;;
75737;SDS011;64356;45.638;13.764;2024-01-07T11:15:06;0.40;;;0.40;;
75737;SDS011;64356;45.638;13.764;2024-01-07T11:19:59;0.40;;;0.40;;
75737;SDS011;64356;45.638;13.764;2024-01-07T11:22:25;0.63;;;0.63;;
75737;SDS011;64356;45.638;13.764;2024-01-07T11:24:53;1.02;;;0.55;;
75737;SDS011;64356;45.638;13.764;2024-01-07T11:27:23;0.40;;;0.40;;
75737;SDS011;64356;45.638;13.764;2024-01-07T11:30:10;0.40;;;0.40;;
75737;SDS011;64356;45.638;13.764;2024-01-07T11:32:44;0.40;;;0.40;;
75737;SDS011;64356;45.638;13.764;2024-01-07T11:35:13;0.50;;;0.50;;
75737;SDS011;64356;45.638;13.764;2024-01-07T11:37:40;0.45;;;0.40;;
75737;SDS011;64356;45.638;13.764;2024-01-07T11:40:07;0.50;;;0.50;;
75737;SDS011;64356;45.638;13.764;2024-01-07T11:42:33;0.60;;;0.60;;
75737;SDS011;64356;45.638;13.764;2024-01-07T11:44:59;0.70;;;0.70;;
75737;SDS011;64356;45.638;13.764;2024-01-07T11:47:25;0.50;;;0.50;;
75737;SDS011;64356;45.638;13.764;2024-01-07T11:49:53;0.45;;;0.45;;
75737;SDS011;64356;45.638;13.764;2024-01-07T11:52:19;0.70;;;0.70;;
75737;SDS011;64356;45.638;13.764;2024-01-07T11:54:46;0.47;;;0.47;;
75737;SDS011;64356;45.638;13.764;2024-01-07T11:57:13;0.70;;;0.45;;
75737;SDS011;64356;45.638;13.764;2024-01-07T11:59:38;0.40;;;0.40;;
75737;SDS011;64356;45.638;13.764;2024-01-07T12:02:04;0.40;;;0.40;;
75737;SDS011;64356;45.638;13.764;2024-01-07T12:04:33;0.60;;;0.60;;
75737;SDS011;64356;45.638;13.764;2024-01-07T12:06:59;0.45;;;0.40;;
75737;SDS011;64356;45.638;13.764;2024-01-07T12:09:25;0.50;;;0.40;;
75737;SDS011;64356;45.638;13.764;2024-01-07T12:11:54;0.50;;;0.50;;
75737;SDS011;64356;45.638;13.764;2024-01-07T12:14:22;0.40;;;0.40;;
75737;SDS011;64356;45.638;13.764;2024-01-07T12:16:48;0.50;;;0.50;;
75737;SDS011;64356;45.638;13.764;2024-01-07T12:19:14;0.40;;;0.40;;
75737;SDS011;64356;45.638;13.764;2024-01-07T12:21:39;0.47;;;0.47;;
75737;SDS011;64356;45.638;13.764;2024-01-07T12:24:08;0.45;;;0.45;;
75737;SDS011;64356;45.638;13.764;2024-01-07T12:29:05;0.50;;;0.50;;
75737;SDS011;64356;45.638;13.764;2024-01-07T12:31:37;0.50;;;0.50;;
75737;SDS011;64356;45.638;13.764;2024-01-07T12:34:04;0.52;;;0.52;;
75737;SDS011;64356;45.638;13.764;2024-01-07T12:36:30;0.43;;;0.43;;
75737;SDS011;64356;45.638;13.764;2024-01-07T12:38:58;0.50;;;0.50;;
75737;SDS011;64356;45.638;13.764;2024-01-07T12:41:27;0.50;;;0.50;;
75737;SDS011;64356;45.638;13.764;2024-01-07T12:43:55;0.52;;;0.52;;
75737;SDS011;64356;45.638;13.764;2024-01-07T12:46:21;0.47;;;0.47;;
75737;SDS011;64356;45.638;13.764;2024-01-07T12:48:47;0.40;;;0.40;;
75737;SDS011;64356;45.638;13.764;2024-01-07T12:51:12;0.55;;;0.40;;
75737;SDS011;64356;45.638;13.764;2024-01-07T12:53:38;0.73;;;0.60;;
75737;SDS011;64356;45.638;13.764;2024-01-07T12:56:04;0.40;;;0.40;;
75737;SDS011;64356;45.638;13.764;2024-01-07T12:58:30;0.50;;;0.50;;
75737;SDS011;64356;45.638;13.764;2024-01-07T13:00:55;0.75;;;0.50;;
75737;SDS011;64356;45.638;13.764;2024-01-07T13:03:21;1.10;;;0.60;;
75737;SDS011;64356;45.638;13.764;2024-01-07T13:05:47;0.68;;;0.60;;
75737;SDS011;64356;45.638;13.764;2024-01-07T13:08:16;0.38;;;0.38;;
75737;SDS011;64356;45.638;13.764;2024-01-07T13:10:47;0.63;;;0.50;;
75737;SDS011;64356;45.638;13.764;2024-01-07T13:13:13;0.50;;;0.50;;
75737;SDS011;64356;45.638;13.764;2024-01-07T13:15:39;0.47;;;0.47;;
75737;SDS011;64356;45.638;13.764;2024-01-07T13:18:06;0.50;;;0.50;;
75737;SDS011;64356;45.638;13.764;2024-01-07T13:20:32;0.40;;;0.40;;
75737;SDS011;64356;45.638;13.764;2024-01-07T13:22:57;0.57;;;0.57;;
75737;SDS011;64356;45.638;13.764;2024-01-07T13:25:23;0.50;;;0.50;;
75737;SDS011;64356;45.638;13.764;2024-01-07T13:27:49;0.50;;;0.50;;
75737;SDS011;64356;45.638;13.764;2024-01-07T13:30:14;0.50;;;0.50;;
75737;SDS011;64356;45.638;13.764;2024-01-07T13:32:41;0.65;;;0.65;;
75737;SDS011;64356;45.638;13.764;2024-01-07T13:35:10;0.57;;;0.57;;
75737;SDS011;64356;45.638;13.764;2024-01-07T13:37:38;0.40;;;0.40;;
75737;SDS011;64356;45.638;13.764;2024-01-07T13:40:07;0.40;;;0.40;;
75737;SDS011;64356;45.638;13.764;2024-01-07T13:42:35;0.80;;;0.50;;
75737;SDS011;64356;45.638;13.764;2024-01-07T13:47:35;0.85;;;0.47;;
75737;SDS011;64356;45.638;13.764;2024-01-07T13:50:01;0.95;;;0.68;;
75737;SDS011;64356;45.638;13.764;2024-01-07T13:52:29;1.30;;;0.52;;
75737;SDS011;64356;45.638;13.764;2024-01-07T13:54:55;0.80;;;0.50;;
75737;SDS011;64356;45.638;13.764;2024-01-07T13:57:26;0.50;;;0.50;;
75737;SDS011;64356;45.638;13.764;2024-01-07T13:59:52;0.75;;;0.52;;
75737;SDS011;64356;45.638;13.764;2024-01-07T14:02:18;0.63;;;0.63;;
75737;SDS011;64356;45.638;13.764;2024-01-07T14:04:47;0.60;;;0.60;;
75737;SDS011;64356;45.638;13.764;2024-01-07T14:07:13;0.50;;;0.50;;
75737;SDS011;64356;45.638;13.764;2024-01-07T14:09:39;0.70;;;0.60;;
75737;SDS011;64356;45.638;13.764;2024-01-07T14:12:05;0.85;;;0.77;;
75737;SDS011;64356;45.638;13.764;2024-01-07T14:14:31;0.50;;;0.50;;
75737;SDS011;64356;45.638;13.764;2024-01-07T14:16:57;0.60;;;0.60;;
75737;SDS011;64356;45.638;13.764;2024-01-07T14:19:22;0.65;;;0.65;;
75737;SDS011;64356;45.638;13.764;2024-01-07T14:21:48;0.60;;;0.60;;
75737;SDS011;64356;45.638;13.764;2024-01-07T14:24:14;0.70;;;0.70;;
75737;SDS011;64356;45.638;13.764;2024-01-07T14:26:39;0.80;;;0.60;;
75737;SDS011;64356;45.638;13.764;2024-01-07T14:29:05;0.55;;;0.55;;
75737;SDS011;64356;45.638;13.764;2024-01-07T14:31:31;0.55;;;0.50;;
75737;SDS011;64356;45.638;13.764;2024-01-07T14:33:57;1.20;;;0.43;;
75737;SDS011;64356;45.638;13.764;2024-01-07T14:36:23;0.70;;;0.70;;
75737;SDS011;64356;45.638;13.764;2024-01-07T14:38:49;0.63;;;0.63;;